sensor_id;sensor_type;location;lat;lon;timestamp;pressure;altitude;pressure_sealevel;temperature;humidity
52975;BME280;38839;45.186;5.720;2023-07-13T00:01:17;99106.25;;;23.03;100.00
52975;BME280;38839;45.186;5.720;2023-07-13T00:03:42;99108.28;;;22.98;100.00
52975;BME280;38839;45.186;5.720;2023-07-13T00:06:08;99117.00;;;23.01;100.00
52975;BME280;38839;45.186;5.720;2023-07-13T00:08:34;99104.47;;;23.03;100.00
52975;BME280;38839;45.186;5.720;2023-07-13T00:11:01;99100.78;;;23.06;100.00
52975;BME280;38839;45.186;5.720;2023-07-13T00:13:28;99099.75;;;23.08;100.00
52975;BME280;38839;45.186;5.720;2023-07-13T00:15:53;99100.59;;;23.09;100.00
52975;BME280;38839;45.186;5.720;2023-07-13T00:18:21;99102.31;;;23.10;100.00
52975;BME280;38839;45.186;5.720;2023-07-13T00:20:47;99106.53;;;23.14;100.00
52975;BME280;38839;45.186;5.720;2023-07-13T00:23:13;99096.31;;;23.22;100.00
52975;BME280;38839;45.186;5.720;2023-07-13T00:25:38;99115.88;;;23.21;100.00
52975;BME280;38839;45.186;5.720;2023-07-13T00:28:03;99105.16;;;23.23;100.00
52975;BME280;38839;45.186;5.720;2023-07-13T00:30:29;99100.88;;;23.20;100.00
52975;BME280;38839;45.186;5.720;2023-07-13T00:32:55;99100.94;;;23.19;100.00
52975;BME280;38839;45.186;5.720;2023-07-13T00:35:20;99110.03;;;23.15;100.00
52975;BME280;38839;45.186;5.720;2023-07-13T00:37:46;99112.78;;;23.13;100.00
52975;BME280;38839;45.186;5.720;2023-07-13T00:40:13;99119.22;;;23.09;100.00
52975;BME280;38839;45.186;5.720;2023-07-13T00:42:39;99130.91;;;23.06;100.00
52975;BME280;38839;45.186;5.720;2023-07-13T00:47:36;99133.47;;;23.08;100.00
52975;BME280;38839;45.186;5.720;2023-07-13T00:50:02;99139.91;;;23.04;100.00
52975;BME280;38839;45.186;5.720;2023-07-13T00:52:29;99133.94;;;22.99;100.00
52975;BME280;38839;45.186;5.720;2023-07-13T00:54:54;99145.16;;;22.88;100.00
52975;BME280;38839;45.186;5.720;2023-07-13T00:57:21;99160.44;;;22.84;100.00
52975;BME280;38839;45.186;5.720;2023-07-13T00:59:54;99157.31;;;22.76;100.00
52975;BME280;38839;45.186;5.720;2023-07-13T01:02:20;99165.03;;;22.65;100.00
52975;BME280;38839;45.186;5.720;2023-07-13T01:04:47;99164.16;;;22.64;100.00
52975;BME280;38839;45.186;5.720;2023-07-13T01:07:13;99153.97;;;22.73;100.00
52975;BME280;38839;45.186;5.720;2023-07-13T01:09:39;99150.75;;;22.83;100.00
52975;BME280;38839;45.186;5.720;2023-07-13T01:12:04;99148.56;;;22.74;100.00
52975;BME280;38839;45.186;5.720;2023-07-13T01:14:30;99150.13;;;22.78;100.00
52975;BME280;38839;45.186;5.720;2023-07-13T01:16:56;99142.19;;;22.94;100.00
52975;BME280;38839;45.186;5.720;2023-07-13T01:19:42;99138.47;;;22.97;100.00
52975;BME280;38839;45.186;5.720;2023-07-13T01:22:15;99133.16;;;22.97;100.00
52975;BME280;38839;45.186;5.720;2023-07-13T01:24:42;99132.25;;;22.98;100.00
52975;BME280;38839;45.186;5.720;2023-07-13T01:27:09;99128.88;;;22.94;100.00
52975;BME280;38839;45.186;5.720;2023-07-13T01:29:37;99125.69;;;22.87;100.00
52975;BME280;38839;45.186;5.720;2023-07-13T01:32:20;99123.38;;;22.81;100.00
52975;BME280;38839;45.186;5.720;2023-07-13T01:34:48;99137.69;;;22.79;100.00
52975;BME280;38839;45.186;5.720;2023-07-13T01:37:14;99139.47;;;22.78;100.00
52975;BME280;38839;45.186;5.720;2023-07-13T01:39:40;99144.66;;;22.81;100.00
52975;BME280;38839;45.186;5.720;2023-07-13T01:42:05;99143.78;;;22.81;100.00
52975;BME280;38839;45.186;5.720;2023-07-13T01:44:31;99147.56;;;22.77;100.00
52975;BME280;38839;45.186;5.720;2023-07-13T01:46:57;99148.56;;;22.74;100.00
52975;BME280;38839;45.186;5.720;2023-07-13T01:49:23;99150.44;;;22.72;100.00
52975;BME280;38839;45.186;5.720;2023-07-13T01:51:48;99151.47;;;22.69;100.00
52975;BME280;38839;45.186;5.720;2023-07-13T01:54:16;99148.88;;;22.68;100.00
52975;BME280;38839;45.186;5.720;2023-07-13T01:56:41;99144.78;;;22.62;100.00
52975;BME280;38839;45.186;5.720;2023-07-13T01:59:08;99140.44;;;22.60;100.00
52975;BME280;38839;45.186;5.720;2023-07-13T02:01:34;99146.88;;;22.56;100.00
52975;BME280;38839;45.186;5.720;2023-07-13T02:03:59;99149.53;;;22.56;100.00
52975;BME280;38839;45.186;5.720;2023-07-13T02:06:24;99139.06;;;22.53;100.00
52975;BME280;38839;45.186;5.720;2023-07-13T02:08:50;99151.59;;;22.50;100.00
52975;BME280;38839;45.186;5.720;2023-07-13T02:11:15;99150.03;;;22.46;100.00
52975;BME280;38839;45.186;5.720;2023-07-13T02:13:40;99149.31;;;22.43;100.00
52975;BME280;38839;45.186;5.720;2023-07-13T02:16:06;99146.97;;;22.37;100.00
52975;BME280;38839;45.186;5.720;2023-07-13T02:18:31;99140.94;;;22.33;100.00
52975;BME280;38839;45.186;5.720;2023-07-13T02:20:57;99154.56;;;22.27;100.00
52975;BME280;38839;45.186;5.720;2023-07-13T02:23:22;99147.88;;;22.18;100.00
52975;BME280;38839;45.186;5.720;2023-07-13T02:25:48;99159.53;;;22.16;100.00
52975;BME280;38839;45.186;5.720;2023-07-13T02:28:14;99153.75;;;22.07;100.00
52975;BME280;38839;45.186;5.720;2023-07-13T02:30:39;99153.88;;;22.04;100.00
52975;BME280;38839;45.186;5.720;2023-07-13T02:33:05;99153.03;;;22.04;100.00
52975;BME280;38839;45.186;5.720;2023-07-13T02:35:31;99158.66;;;21.98;100.00
52975;BME280;38839;45.186;5.720;2023-07-13T02:37:56;99157.03;;;21.95;100.00
52975;BME280;38839;45.186;5.720;2023-07-13T02:40:22;99164.28;;;21.92;100.00
52975;BME280;38839;45.186;5.720;2023-07-13T02:42:48;99159.19;;;21.87;100.00
52975;BME280;38839;45.186;5.720;2023-07-13T02:45:13;99159.28;;;21.85;100.00
52975;BME280;38839;45.186;5.720;2023-07-13T02:47:41;99151.66;;;21.78;100.00
52975;BME280;38839;45.186;5.720;2023-07-13T02:50:07;99159.75;;;21.76;100.00
52975;BME280;38839;45.186;5.720;2023-07-13T02:52:32;99153.72;;;21.73;100.00
52975;BME280;38839;45.186;5.720;2023-07-13T02:54:58;99158.16;;;21.72;100.00
52975;BME280;38839;45.186;5.720;2023-07-13T02:57:23;99157.75;;;21.62;100.00
52975;BME280;38839;45.186;5.720;2023-07-13T02:59:49;99159.44;;;21.63;100.00
52975;BME280;38839;45.186;5.720;2023-07-13T03:02:15;99160.41;;;21.62;100.00
52975;BME280;38839;45.186;5.720;2023-07-13T03:04:40;99159.44;;;21.63;100.00
52975;BME280;38839;45.186;5.720;2023-07-13T03:07:06;99155.88;;;21.64;100.00
52975;BME280;38839;45.186;5.720;2023-07-13T03:09:33;99161.31;;;21.61;100.00
52975;BME280;38839;45.186;5.720;2023-07-13T03:11:59;99163.19;;;21.59;100.00
52975;BME280;38839;45.186;5.720;2023-07-13T03:14:25;99165.72;;;21.62;100.00
52975;BME280;38839;45.186;5.720;2023-07-13T03:16:50;99164.13;;;21.58;100.00
52975;BME280;38839;45.186;5.720;2023-07-13T03:19:17;99168.50;;;21.59;100.00
52975;BME280;38839;45.186;5.720;2023-07-13T03:21:42;99166.78;;;21.58;100.00
52975;BME280;38839;45.186;5.720;2023-07-13T03:24:07;99161.47;;;21.58;100.00
52975;BME280;38839;45.186;5.720;2023-07-13T03:26:33;99180.13;;;21.57;100.00
52975;BME280;38839;45.186;5.720;2023-07-13T03:28:58;99172.88;;;21.60;100.00
52975;BME280;38839;45.186;5.720;2023-07-13T03:31:29;99176.75;;;21.53;100.00
52975;BME280;38839;45.186;5.720;2023-07-13T03:33:55;99185.91;;;21.47;100.00
52975;BME280;38839;45.186;5.720;2023-07-13T03:36:24;99194.72;;;21.48;100.00
52975;BME280;38839;45.186;5.720;2023-07-13T03:38:53;99184.88;;;21.50;100.00
52975;BME280;38839;45.186;5.720;2023-07-13T03:41:19;99193.75;;;21.49;100.00
52975;BME280;38839;45.186;5.720;2023-07-13T03:43:45;99197.19;;;21.51;100.00
52975;BME280;38839;45.186;5.720;2023-07-13T03:46:10;99194.78;;;21.46;100.00
52975;BME280;38839;45.186;5.720;2023-07-13T03:48:36;99192.19;;;21.45;100.00
52975;BME280;38839;45.186;5.720;2023-07-13T03:51:01;99193.97;;;21.44;100.00
52975;BME280;38839;45.186;5.720;2023-07-13T03:53:27;99190.31;;;21.47;100.00
52975;BME280;38839;45.186;5.720;2023-07-13T03:55:52;99199.06;;;21.49;100.00
52975;BME280;38839;45.186;5.720;2023-07-13T03:58:32;99195.63;;;21.47;100.00
52975;BME280;38839;45.186;5.720;2023-07-13T04:00:59;99201.72;;;21.49;100.00
52975;BME280;38839;45.186;5.720;2023-07-13T04:03:24;99193.91;;;21.46;100.00
52975;BME280;38839;45.186;5.720;2023-07-13T04:05:50;99200.16;;;21.45;100.00
52975;BME280;38839;45.186;5.720;2023-07-13T04:08:15;99200.00;;;21.48;100.00
52975;BME280;38839;45.186;5.720;2023-07-13T04:10:42;99210.69;;;21.46;100.00
52975;BME280;38839;45.186;5.720;2023-07-13T04:13:08;99209.69;;;21.49;100.00
52975;BME280;38839;45.186;5.720;2023-07-13T04:15:34;99203.28;;;21.53;100.00
52975;BME280;38839;45.186;5.720;2023-07-13T04:17:59;99221.47;;;21.62;100.00
52975;BME280;38839;45.186;5.720;2023-07-13T04:20:26;99220.44;;;21.65;100.00
52975;BME280;38839;45.186;5.720;2023-07-13T04:22:52;99219.66;;;21.63;100.00
52975;BME280;38839;45.186;5.720;2023-07-13T04:25:19;99225.47;;;21.71;100.00
52975;BME280;38839;45.186;5.720;2023-07-13T04:27:44;99228.34;;;21.66;100.00
52975;BME280;38839;45.186;5.720;2023-07-13T04:30:10;99217.06;;;21.61;100.00
52975;BME280;38839;45.186;5.720;2023-07-13T04:32:35;99243.00;;;21.56;100.00
52975;BME280;38839;45.186;5.720;2023-07-13T04:35:00;99237.69;;;21.56;100.00
52975;BME280;38839;45.186;5.720;2023-07-13T04:37:26;99242.31;;;21.51;100.00
52975;BME280;38839;45.186;5.720;2023-07-13T04:39:52;99254.19;;;21.44;100.00
52975;BME280;38839;45.186;5.720;2023-07-13T04:42:18;99252.69;;;21.37;100.00
52975;BME280;38839;45.186;5.720;2023-07-13T04:44:50;99260.00;;;21.32;100.00
52975;BME280;38839;45.186;5.720;2023-07-13T04:47:15;99267.63;;;21.39;100.00
52975;BME280;38839;45.186;5.720;2023-07-13T04:49:41;99250.16;;;21.54;100.00
52975;BME280;38839;45.186;5.720;2023-07-13T04:52:06;99277.00;;;21.48;100.00
52975;BME280;38839;45.186;5.720;2023-07-13T04:54:33;99272.06;;;21.39;100.00
52975;BME280;38839;45.186;5.720;2023-07-13T04:56:58;99269.41;;;21.39;100.00
52975;BME280;38839;45.186;5.720;2023-07-13T04:59:23;99277.25;;;21.42;100.00
52975;BME280;38839;45.186;5.720;2023-07-13T05:01:49;99274.88;;;21.36;100.00
52975;BME280;38839;45.186;5.720;2023-07-13T05:04:14;99276.38;;;21.41;100.00
52975;BME280;38839;45.186;5.720;2023-07-13T05:06:40;99275.50;;;21.41;100.00
52975;BME280;38839;45.186;5.720;2023-07-13T05:09:05;99282.06;;;21.53;100.00
52975;BME280;38839;45.186;5.720;2023-07-13T05:11:31;99282.94;;;21.53;100.00
52975;BME280;38839;45.186;5.720;2023-07-13T05:13:56;99292.06;;;21.47;100.00
52975;BME280;38839;45.186;5.720;2023-07-13T05:16:21;99284.34;;;21.41;100.00
52975;BME280;38839;45.186;5.720;2023-07-13T05:18:47;99304.16;;;21.53;100.00
52975;BME280;38839;45.186;5.720;2023-07-13T05:21:12;99308.16;;;21.43;100.00
52975;BME280;38839;45.186;5.720;2023-07-13T05:23:38;99310.81;;;21.43;100.00
52975;BME280;38839;45.186;5.720;2023-07-13T05:26:05;99305.47;;;21.44;100.00
52975;BME280;38839;45.186;5.720;2023-07-13T05:28:31;99296.22;;;21.33;100.00
52975;BME280;38839;45.186;5.720;2023-07-13T05:30:57;99308.09;;;21.24;100.00
52975;BME280;38839;45.186;5.720;2023-07-13T05:33:23;99310.44;;;21.11;100.00
52975;BME280;38839;45.186;5.720;2023-07-13T05:35:48;99309.97;;;21.01;100.00
52975;BME280;38839;45.186;5.720;2023-07-13T05:38:13;99320.13;;;20.92;100.00
52975;BME280;38839;45.186;5.720;2023-07-13T05:40:39;99320.38;;;20.85;100.00
52975;BME280;38839;45.186;5.720;2023-07-13T05:43:04;99313.03;;;20.72;100.00
52975;BME280;38839;45.186;5.720;2023-07-13T05:45:29;99318.84;;;20.59;100.00
52975;BME280;38839;45.186;5.720;2023-07-13T05:47:55;99331.44;;;20.53;100.00
52975;BME280;38839;45.186;5.720;2023-07-13T05:50:21;99318.19;;;20.53;100.00
52975;BME280;38839;45.186;5.720;2023-07-13T05:52:46;99327.56;;;20.39;100.00
52975;BME280;38839;45.186;5.720;2023-07-13T05:55:12;99328.94;;;20.49;100.00
52975;BME280;38839;45.186;5.720;2023-07-13T05:57:37;99334.47;;;20.43;100.00
52975;BME280;38839;45.186;5.720;2023-07-13T06:00:03;99316.72;;;20.45;100.00
52975;BME280;38839;45.186;5.720;2023-07-13T06:02:28;99331.38;;;20.32;100.00
52975;BME280;38839;45.186;5.720;2023-07-13T06:04:54;99324.38;;;20.31;100.00
52975;BME280;38839;45.186;5.720;2023-07-13T06:07:20;99339.78;;;20.43;100.00
52975;BME280;38839;45.186;5.720;2023-07-13T06:09:46;99335.34;;;20.44;100.00
52975;BME280;38839;45.186;5.720;2023-07-13T06:12:11;99334.34;;;20.46;100.00
52975;BME280;38839;45.186;5.720;2023-07-13T06:14:37;99347.47;;;20.49;100.00
52975;BME280;38839;45.186;5.720;2023-07-13T06:17:02;99350.78;;;20.55;100.00
52975;BME280;38839;45.186;5.720;2023-07-13T06:19:28;99346.63;;;20.49;100.00
52975;BME280;38839;45.186;5.720;2023-07-13T06:21:54;99358.88;;;20.52;100.00
52975;BME280;38839;45.186;5.720;2023-07-13T06:24:19;99360.31;;;20.60;100.00
52975;BME280;38839;45.186;5.720;2023-07-13T06:26:44;99352.97;;;20.67;100.00
52975;BME280;38839;45.186;5.720;2023-07-13T06:29:10;99350.47;;;20.64;100.00
52975;BME280;38839;45.186;5.720;2023-07-13T06:31:35;99347.63;;;20.68;100.00
52975;BME280;38839;45.186;5.720;2023-07-13T06:34:01;99353.94;;;20.86;100.00
52975;BME280;38839;45.186;5.720;2023-07-13T06:36:26;99361.50;;;20.96;100.00
52975;BME280;38839;45.186;5.720;2023-07-13T06:38:51;99361.13;;;21.05;100.00
52975;BME280;38839;45.186;5.720;2023-07-13T06:41:17;99369.34;;;21.19;100.00
52975;BME280;38839;45.186;5.720;2023-07-13T06:43:42;99371.66;;;21.27;100.00
52975;BME280;38839;45.186;5.720;2023-07-13T06:46:07;99379.69;;;21.25;100.00
52975;BME280;38839;45.186;5.720;2023-07-13T06:48:33;99377.97;;;21.45;100.00
52975;BME280;38839;45.186;5.720;2023-07-13T06:50:58;99381.78;;;21.98;100.00
52975;BME280;38839;45.186;5.720;2023-07-13T06:53:24;99383.28;;;22.24;100.00
52975;BME280;38839;45.186;5.720;2023-07-13T06:55:49;99370.94;;;22.59;100.00
52975;BME280;38839;45.186;5.720;2023-07-13T06:58:16;99379.31;;;22.69;100.00
52975;BME280;38839;45.186;5.720;2023-07-13T07:00:42;99370.56;;;22.67;100.00
52975;BME280;38839;45.186;5.720;2023-07-13T07:03:08;99367.56;;;22.56;100.00
52975;BME280;38839;45.186;5.720;2023-07-13T07:05:33;99372.25;;;22.68;100.00
52975;BME280;38839;45.186;5.720;2023-07-13T07:07:59;99362.03;;;22.78;100.00
52975;BME280;38839;45.186;5.720;2023-07-13T07:10:25;99365.81;;;22.91;100.00
52975;BME280;38839;45.186;5.720;2023-07-13T07:12:51;99361.47;;;23.07;100.00
52975;BME280;38839;45.186;5.720;2023-07-13T07:15:17;99367.59;;;23.09;100.00
52975;BME280;38839;45.186;5.720;2023-07-13T07:17:43;99373.75;;;23.10;100.00
52975;BME280;38839;45.186;5.720;2023-07-13T07:20:09;99367.25;;;23.16;100.00
52975;BME280;38839;45.186;5.720;2023-07-13T07:22:34;99372.91;;;23.09;100.00
52975;BME280;38839;45.186;5.720;2023-07-13T07:25:00;99368.66;;;23.23;99.77
52975;BME280;38839;45.186;5.720;2023-07-13T07:27:25;99376.31;;;23.29;99.71
52975;BME280;38839;45.186;5.720;2023-07-13T07:29:51;99375.28;;;23.49;98.78
52975;BME280;38839;45.186;5.720;2023-07-13T07:32:16;99382.44;;;23.82;97.24
52975;BME280;38839;45.186;5.720;2023-07-13T07:34:42;99377.81;;;24.01;95.05
52975;BME280;38839;45.186;5.720;2023-07-13T07:37:10;99377.91;;;24.16;93.53
52975;BME280;38839;45.186;5.720;2023-07-13T07:39:36;99389.25;;;25.29;88.18
52975;BME280;38839;45.186;5.720;2023-07-13T07:42:01;99378.81;;;26.12;82.00
52975;BME280;38839;45.186;5.720;2023-07-13T07:44:27;99379.41;;;25.74;83.39
52975;BME280;38839;45.186;5.720;2023-07-13T07:46:53;99390.94;;;25.75;84.18
52975;BME280;38839;45.186;5.720;2023-07-13T07:49:21;99389.84;;;25.18;85.84
52975;BME280;38839;45.186;5.720;2023-07-13T07:51:46;99399.25;;;24.79;88.95
52975;BME280;38839;45.186;5.720;2023-07-13T07:54:12;99393.50;;;24.71;88.86
52975;BME280;38839;45.186;5.720;2023-07-13T07:56:37;99385.28;;;24.60;89.01
52975;BME280;38839;45.186;5.720;2023-07-13T07:59:02;99393.66;;;24.36;90.76
52975;BME280;38839;45.186;5.720;2023-07-13T08:01:28;99388.00;;;24.58;90.53
52975;BME280;38839;45.186;5.720;2023-07-13T08:03:53;99384.38;;;24.43;90.49
52975;BME280;38839;45.186;5.720;2023-07-13T08:06:19;99383.00;;;24.36;91.43
52975;BME280;38839;45.186;5.720;2023-07-13T08:08:45;99383.25;;;24.79;90.43
52975;BME280;38839;45.186;5.720;2023-07-13T08:11:11;99385.91;;;24.79;89.75
52975;BME280;38839;45.186;5.720;2023-07-13T08:13:37;99379.75;;;24.63;91.50
52975;BME280;38839;45.186;5.720;2023-07-13T08:16:05;99374.41;;;24.31;94.06
52975;BME280;38839;45.186;5.720;2023-07-13T08:18:31;99375.78;;;25.30;90.78
52975;BME280;38839;45.186;5.720;2023-07-13T08:20:56;99373.31;;;25.27;87.80
52975;BME280;38839;45.186;5.720;2023-07-13T08:23:22;99371.28;;;24.86;90.15
52975;BME280;38839;45.186;5.720;2023-07-13T08:25:54;99366.19;;;25.12;89.70
52975;BME280;38839;45.186;5.720;2023-07-13T08:28:22;99368.59;;;25.61;86.42
52975;BME280;38839;45.186;5.720;2023-07-13T08:30:48;99365.28;;;26.01;83.18
52975;BME280;38839;45.186;5.720;2023-07-13T08:33:18;99377.38;;;25.92;83.01
52975;BME280;38839;45.186;5.720;2023-07-13T08:35:48;99363.22;;;25.33;85.01
52975;BME280;38839;45.186;5.720;2023-07-13T08:38:15;99370.31;;;25.62;83.89
52975;BME280;38839;45.186;5.720;2023-07-13T08:40:41;99368.03;;;25.99;81.12
52975;BME280;38839;45.186;5.720;2023-07-13T08:43:13;99373.69;;;26.78;78.31
52975;BME280;38839;45.186;5.720;2023-07-13T08:45:50;99363.44;;;26.16;78.76
52975;BME280;38839;45.186;5.720;2023-07-13T08:48:23;99370.31;;;26.20;80.02
52975;BME280;38839;45.186;5.720;2023-07-13T08:51:12;99365.25;;;26.15;80.53
52975;BME280;38839;45.186;5.720;2023-07-13T08:53:49;99379.94;;;26.22;79.87
52975;BME280;38839;45.186;5.720;2023-07-13T08:56:23;99368.03;;;25.99;80.92
52975;BME280;38839;45.186;5.720;2023-07-13T08:58:55;99377.47;;;26.19;79.88
52975;BME280;38839;45.186;5.720;2023-07-13T09:01:32;99374.72;;;25.92;81.46
52975;BME280;38839;45.186;5.720;2023-07-13T09:04:19;99368.72;;;26.03;81.51
52975;BME280;38839;45.186;5.720;2023-07-13T09:09:28;99370.00;;;26.52;80.06
52975;BME280;38839;45.186;5.720;2023-07-13T09:12:11;99374.38;;;27.34;75.63
52975;BME280;38839;45.186;5.720;2023-07-13T09:14:43;99358.47;;;27.95;72.33
52975;BME280;38839;45.186;5.720;2023-07-13T09:17:33;99366.88;;;27.39;73.78
52975;BME280;38839;45.186;5.720;2023-07-13T09:20:09;99370.19;;;27.43;72.23
52975;BME280;38839;45.186;5.720;2023-07-13T09:22:37;99374.13;;;28.01;70.50
52975;BME280;38839;45.186;5.720;2023-07-13T09:25:30;99367.97;;;28.62;66.62
52975;BME280;38839;45.186;5.720;2023-07-13T09:27:59;99382.28;;;28.13;67.57
52975;BME280;38839;45.186;5.720;2023-07-13T09:33:10;99361.16;;;28.08;68.04
52975;BME280;38839;45.186;5.720;2023-07-13T09:35:35;99372.00;;;27.81;68.32
52975;BME280;38839;45.186;5.720;2023-07-13T09:38:15;99373.53;;;27.59;68.10
52975;BME280;38839;45.186;5.720;2023-07-13T09:41:19;99376.94;;;27.36;68.97
52975;BME280;38839;45.186;5.720;2023-07-13T09:44:08;99377.72;;;26.98;69.19
52975;BME280;38839;45.186;5.720;2023-07-13T09:46:34;99377.47;;;27.01;69.15
52975;BME280;38839;45.186;5.720;2023-07-13T09:49:00;99380.50;;;27.09;68.23
52975;BME280;38839;45.186;5.720;2023-07-13T09:51:25;99393.66;;;27.52;67.19
52975;BME280;38839;45.186;5.720;2023-07-13T09:53:51;99399.44;;;27.33;67.74
52975;BME280;38839;45.186;5.720;2023-07-13T09:56:42;99385.78;;;26.71;69.38
52975;BME280;38839;45.186;5.720;2023-07-13T09:59:29;99382.84;;;26.46;70.86
52975;BME280;38839;45.186;5.720;2023-07-13T10:01:55;99383.50;;;26.50;70.92
52975;BME280;38839;45.186;5.720;2023-07-13T10:04:26;99392.53;;;26.20;70.96
52975;BME280;38839;45.186;5.720;2023-07-13T10:07:07;99387.97;;;25.79;72.76
52975;BME280;38839;45.186;5.720;2023-07-13T10:09:34;99373.75;;;25.79;72.79
52975;BME280;38839;45.186;5.720;2023-07-13T10:12:00;99370.69;;;26.14;71.54
52975;BME280;38839;45.186;5.720;2023-07-13T10:14:27;99384.22;;;26.25;70.39
52975;BME280;38839;45.186;5.720;2023-07-13T10:16:59;99394.38;;;26.05;70.70
52975;BME280;38839;45.186;5.720;2023-07-13T10:19:32;99386.28;;;26.07;71.00
52975;BME280;38839;45.186;5.720;2023-07-13T10:22:03;99384.66;;;25.90;69.84
52975;BME280;38839;45.186;5.720;2023-07-13T10:24:39;99383.78;;;25.89;70.28
52975;BME280;38839;45.186;5.720;2023-07-13T10:27:16;99396.09;;;26.06;70.22
52975;BME280;38839;45.186;5.720;2023-07-13T10:29:46;99394.19;;;26.08;68.73
52975;BME280;38839;45.186;5.720;2023-07-13T10:32:13;99398.38;;;26.13;67.81
52975;BME280;38839;45.186;5.720;2023-07-13T10:34:40;99401.34;;;25.94;67.66
52975;BME280;38839;45.186;5.720;2023-07-13T10:37:16;99388.97;;;25.93;68.22
52975;BME280;38839;45.186;5.720;2023-07-13T10:39:44;99391.59;;;25.78;67.41
52975;BME280;38839;45.186;5.720;2023-07-13T10:42:14;99383.88;;;26.02;67.21
52975;BME280;38839;45.186;5.720;2023-07-13T10:44:40;99390.94;;;26.18;66.34
52975;BME280;38839;45.186;5.720;2023-07-13T10:47:10;99390.53;;;26.24;65.52
52975;BME280;38839;45.186;5.720;2023-07-13T10:49:39;99390.38;;;25.98;66.12
52975;BME280;38839;45.186;5.720;2023-07-13T10:52:06;99387.50;;;26.16;65.33
52975;BME280;38839;45.186;5.720;2023-07-13T10:54:34;99391.03;;;26.02;65.14
52975;BME280;38839;45.186;5.720;2023-07-13T10:57:20;99381.19;;;25.88;65.11
52975;BME280;38839;45.186;5.720;2023-07-13T10:59:48;99364.38;;;25.72;65.55
52975;BME280;38839;45.186;5.720;2023-07-13T11:02:27;99368.41;;;25.64;65.53
52975;BME280;38839;45.186;5.720;2023-07-13T11:04:54;99352.38;;;25.50;66.36
52975;BME280;38839;45.186;5.720;2023-07-13T11:07:21;99344.16;;;25.53;66.96
52975;BME280;38839;45.186;5.720;2023-07-13T11:09:52;99344.66;;;25.45;67.14
52975;BME280;38839;45.186;5.720;2023-07-13T11:19:54;99347.59;;;25.69;66.16
52975;BME280;38839;45.186;5.720;2023-07-13T11:25:32;99356.34;;;25.86;65.21
52975;BME280;38839;45.186;5.720;2023-07-13T11:30:42;99352.28;;;25.80;65.05
52975;BME280;38839;45.186;5.720;2023-07-13T11:41:19;99317.41;;;25.82;64.45
52975;BME280;38839;45.186;5.720;2023-07-13T11:43:46;99321.59;;;26.15;63.83
52975;BME280;38839;45.186;5.720;2023-07-13T11:46:25;99326.03;;;26.01;60.66
52975;BME280;38839;45.186;5.720;2023-07-13T11:48:52;99319.53;;;26.05;61.42
52975;BME280;38839;45.186;5.720;2023-07-13T11:51:28;99326.41;;;26.09;61.87
52975;BME280;38839;45.186;5.720;2023-07-13T11:53:56;99319.31;;;26.08;61.78
52975;BME280;38839;45.186;5.720;2023-07-13T11:56:27;99304.34;;;26.06;61.30
52975;BME280;38839;45.186;5.720;2023-07-13T11:58:54;99304.47;;;26.32;61.08
52975;BME280;38839;45.186;5.720;2023-07-13T12:01:22;99306.13;;;26.20;61.32
52975;BME280;38839;45.186;5.720;2023-07-13T12:03:49;99313.16;;;26.21;61.33
52975;BME280;38839;45.186;5.720;2023-07-13T12:08:56;99305.50;;;26.29;60.33
52975;BME280;38839;45.186;5.720;2023-07-13T12:11:21;99304.69;;;26.41;58.78
52975;BME280;38839;45.186;5.720;2023-07-13T12:13:47;99305.09;;;26.35;58.24
52975;BME280;38839;45.186;5.720;2023-07-13T12:18:52;99290.22;;;26.31;58.21
52975;BME280;38839;45.186;5.720;2023-07-13T12:21:19;99278.81;;;26.15;57.48
52975;BME280;38839;45.186;5.720;2023-07-13T12:23:47;99272.72;;;26.13;57.52
52975;BME280;38839;45.186;5.720;2023-07-13T12:26:15;99276.34;;;26.39;57.18
52975;BME280;38839;45.186;5.720;2023-07-13T12:28:51;99270.75;;;26.29;57.68
52975;BME280;38839;45.186;5.720;2023-07-13T12:34:12;99275.19;;;26.16;58.69
52975;BME280;38839;45.186;5.720;2023-07-13T12:36:50;99281.69;;;26.12;58.51
52975;BME280;38839;45.186;5.720;2023-07-13T12:39:22;99288.59;;;26.28;58.90
52975;BME280;38839;45.186;5.720;2023-07-13T12:41:50;99279.00;;;26.39;57.74
52975;BME280;38839;45.186;5.720;2023-07-13T12:44:28;99279.16;;;26.23;57.16
52975;BME280;38839;45.186;5.720;2023-07-13T12:47:03;99271.31;;;26.34;57.93
52975;BME280;38839;45.186;5.720;2023-07-13T12:49:31;99282.44;;;26.41;56.89
52975;BME280;38839;45.186;5.720;2023-07-13T12:52:02;99285.13;;;26.14;56.83
52975;BME280;38839;45.186;5.720;2023-07-13T12:54:29;99278.31;;;26.22;56.93
52975;BME280;38839;45.186;5.720;2023-07-13T12:56:56;99268.94;;;26.29;56.02
52975;BME280;38839;45.186;5.720;2023-07-13T12:59:25;99283.09;;;26.44;55.76
52975;BME280;38839;45.186;5.720;2023-07-13T13:01:53;99276.09;;;26.29;55.22
52975;BME280;38839;45.186;5.720;2023-07-13T13:04:19;99270.09;;;26.25;55.63
52975;BME280;38839;45.186;5.720;2023-07-13T13:07:00;99273.31;;;26.30;54.54
52975;BME280;38839;45.186;5.720;2023-07-13T13:09:26;99263.22;;;26.48;55.07
52975;BME280;38839;45.186;5.720;2023-07-13T13:11:51;99273.59;;;26.53;53.43
52975;BME280;38839;45.186;5.720;2023-07-13T13:14:17;99272.81;;;26.38;52.59
52975;BME280;38839;45.186;5.720;2023-07-13T13:16:46;99265.56;;;26.40;52.12
52975;BME280;38839;45.186;5.720;2023-07-13T13:19:32;99268.63;;;26.34;52.62
52975;BME280;38839;45.186;5.720;2023-07-13T13:21:57;99266.84;;;26.47;52.20
52975;BME280;38839;45.186;5.720;2023-07-13T13:24:26;99265.09;;;26.61;51.65
52975;BME280;38839;45.186;5.720;2023-07-13T13:26:53;99268.13;;;26.69;51.16
52975;BME280;38839;45.186;5.720;2023-07-13T13:29:22;99263.38;;;26.60;50.02
52975;BME280;38839;45.186;5.720;2023-07-13T13:31:50;99266.94;;;26.73;49.98
52975;BME280;38839;45.186;5.720;2023-07-13T13:34:17;99269.09;;;26.81;49.19
52975;BME280;38839;45.186;5.720;2023-07-13T13:36:44;99267.13;;;26.70;49.16